DataTemp.
Ø
Temp.
Max
Temp.
Min
UmiditàPressionePioggiaVento
Ø
Vento
dir. Ø
Vento
Max
Rad. solare
Ø
Rad. solare
Max
Indice UV
Max
07.02.2023 00:00-1.2°C-1.2°C-1.3°C78.0%1035.6hPa0.0mm0.0km/hSSE1.4km/h0.0W/m²0W/m²0uvi
07.02.2023 00:05-1.3°C-1.3°C-1.3°C78.0%1035.6hPa0.0mm0.0km/hSSE3.2km/h0.0W/m²0W/m²0uvi
07.02.2023 00:10-1.3°C-1.3°C-1.3°C78.0%1035.5hPa0.0mm1.1km/hSSE3.2km/h0.0W/m²0W/m²0uvi
07.02.2023 00:15-1.3°C-1.3°C-1.3°C77.2%1035.6hPa0.0mm1.4km/hSSE1.4km/h0.0W/m²0W/m²0uvi
07.02.2023 00:20-1.3°C-1.3°C-1.3°C77.0%1035.5hPa0.0mm0.6km/hS4.7km/h0.0W/m²0W/m²0uvi
07.02.2023 00:25-1.4°C-1.3°C-1.4°C77.0%1035.6hPa0.0mm1.4km/hS1.4km/h0.0W/m²0W/m²0uvi
07.02.2023 00:30-1.4°C-1.3°C-1.4°C77.0%1035.6hPa0.0mm1.4km/hS3.2km/h0.0W/m²0W/m²0uvi
07.02.2023 00:35-1.4°C-1.4°C-1.4°C77.0%1035.6hPa0.0mm1.4km/hS3.2km/h0.0W/m²0W/m²0uvi
07.02.2023 00:40-1.4°C-1.4°C-1.5°C78.0%1035.6hPa0.0mm1.0km/hS1.4km/h0.0W/m²0W/m²0uvi
07.02.2023 00:45-1.5°C-1.5°C-1.6°C78.0%1035.7hPa0.0mm0.0km/hS1.4km/h0.0W/m²0W/m²0uvi
07.02.2023 00:50-1.6°C-1.5°C-1.7°C78.0%1035.6hPa0.0mm0.0km/hS0.0km/h0.0W/m²0W/m²0uvi
07.02.2023 00:55-1.7°C-1.6°C-1.8°C78.0%1035.7hPa0.0mm0.0km/hS1.4km/h0.0W/m²0W/m²0uvi
07.02.2023 01:00-1.8°C-1.8°C-1.9°C78.0%1035.8hPa0.0mm0.0km/hS3.2km/h0.0W/m²0W/m²0uvi
07.02.2023 01:05-2.0°C-1.9°C-2.1°C78.1%1035.8hPa0.0mm0.5km/hS3.2km/h0.0W/m²0W/m²0uvi
07.02.2023 01:10-2.1°C-2.1°C-2.2°C79.0%1035.8hPa0.0mm1.4km/hS3.2km/h0.0W/m²0W/m²0uvi
07.02.2023 01:15-2.2°C-2.2°C-2.3°C79.0%1035.8hPa0.0mm1.4km/hS0.0km/h0.0W/m²0W/m²0uvi
07.02.2023 01:20-2.3°C-2.3°C-2.3°C79.0%1035.9hPa0.0mm0.1km/hS1.4km/h0.0W/m²0W/m²0uvi
07.02.2023 01:25-2.3°C-2.3°C-2.3°C79.2%1036.0hPa0.0mm0.0km/hS1.4km/h0.0W/m²0W/m²0uvi
07.02.2023 01:30-2.3°C-2.3°C-2.3°C80.0%1036.0hPa0.0mm0.0km/hS1.4km/h0.0W/m²0W/m²0uvi
07.02.2023 01:35-2.3°C-2.3°C-2.3°C80.0%1036.1hPa0.0mm0.0km/hS1.4km/h0.0W/m²0W/m²0uvi
07.02.2023 01:40-2.4°C-2.3°C-2.4°C79.8%1036.1hPa0.0mm0.0km/hS1.4km/h0.0W/m²0W/m²0uvi
07.02.2023 01:45-2.4°C-2.4°C-2.4°C79.0%1036.2hPa0.0mm0.0km/hS1.4km/h0.0W/m²0W/m²0uvi
07.02.2023 01:50-2.5°C-2.4°C-2.6°C79.0%1036.3hPa0.0mm0.0km/hS1.4km/h0.0W/m²0W/m²0uvi
07.02.2023 01:55-2.6°C-2.5°C-2.6°C79.0%1036.4hPa0.0mm0.0km/hS1.4km/h0.0W/m²0W/m²0uvi
07.02.2023 02:00-2.6°C-2.6°C-2.6°C79.0%1036.3hPa0.0mm0.0km/hS3.2km/h0.0W/m²0W/m²0uvi
07.02.2023 02:05-2.6°C-2.6°C-2.6°C79.0%1036.4hPa0.0mm0.2km/hS3.2km/h0.0W/m²0W/m²0uvi
07.02.2023 02:10-2.6°C-2.5°C-2.6°C78.1%1036.5hPa0.0mm0.9km/hS1.4km/h0.0W/m²0W/m²0uvi
07.02.2023 02:15-2.6°C-2.6°C-2.6°C78.0%1036.5hPa0.0mm0.0km/hS3.2km/h0.0W/m²0W/m²0uvi
07.02.2023 02:20-2.6°C-2.6°C-2.6°C78.0%1036.6hPa0.0mm0.0km/hESE3.2km/h0.0W/m²0W/m²0uvi
07.02.2023 02:25-2.6°C-2.6°C-2.6°C78.0%1036.6hPa0.0mm0.0km/hESE1.4km/h0.0W/m²0W/m²0uvi
07.02.2023 02:30-2.6°C-2.5°C-2.6°C78.0%1036.6hPa0.0mm0.0km/hESE1.4km/h0.0W/m²0W/m²0uvi
07.02.2023 02:35-2.6°C-2.5°C-2.6°C78.0%1036.6hPa0.0mm0.0km/hESE1.4km/h0.0W/m²0W/m²0uvi
07.02.2023 02:40-2.6°C-2.5°C-2.6°C78.0%1036.6hPa0.0mm0.0km/hESE1.4km/h0.0W/m²0W/m²0uvi
07.02.2023 02:45-2.6°C-2.5°C-2.6°C78.0%1036.5hPa0.0mm0.0km/hSSW4.7km/h0.0W/m²0W/m²0uvi
07.02.2023 02:50-2.6°C-2.6°C-2.6°C78.0%1036.5hPa0.0mm0.0km/hSSW1.4km/h0.0W/m²0W/m²0uvi
07.02.2023 02:55-2.7°C-2.6°C-2.7°C78.0%1036.5hPa0.0mm0.0km/hS3.2km/h0.0W/m²0W/m²0uvi
07.02.2023 03:00-2.7°C-2.7°C-2.7°C78.0%1036.5hPa0.0mm0.0km/hS6.5km/h0.0W/m²0W/m²0uvi
07.02.2023 03:05-2.7°C-2.7°C-2.7°C77.7%1036.5hPa0.0mm1.4km/hS7.9km/h0.0W/m²0W/m²0uvi
07.02.2023 03:10-2.6°C-2.6°C-2.7°C77.0%1036.5hPa0.0mm2.8km/hSSW6.5km/h0.0W/m²0W/m²0uvi
07.02.2023 03:15-2.6°C-2.6°C-2.6°C76.6%1036.5hPa0.0mm3.1km/hS4.7km/h0.0W/m²0W/m²0uvi
07.02.2023 03:20-2.6°C-2.6°C-2.7°C76.0%1036.5hPa0.0mm1.4km/hSSW4.7km/h0.0W/m²0W/m²0uvi
07.02.2023 03:25-2.7°C-2.6°C-2.7°C76.0%1036.4hPa0.0mm1.4km/hS4.7km/h0.0W/m²0W/m²0uvi
07.02.2023 03:30-2.7°C-2.7°C-2.7°C76.0%1036.4hPa0.0mm1.4km/hS3.2km/h0.0W/m²0W/m²0uvi
07.02.2023 03:35-2.6°C-2.6°C-2.7°C75.8%1036.4hPa0.0mm1.4km/hS7.9km/h0.0W/m²0W/m²0uvi
07.02.2023 03:40-2.5°C-2.4°C-2.6°C75.0%1036.4hPa0.0mm1.4km/hSSW6.5km/h0.0W/m²0W/m²0uvi
07.02.2023 03:45-2.5°C-2.5°C-2.6°C75.0%1036.4hPa0.0mm1.8km/hSSW1.4km/h0.0W/m²0W/m²0uvi
07.02.2023 03:50-2.6°C-2.5°C-2.6°C75.7%1036.4hPa0.0mm1.0km/hSSW1.4km/h0.0W/m²0W/m²0uvi
07.02.2023 03:55-2.7°C-2.6°C-2.7°C76.3%1036.5hPa0.0mm0.0km/hSSW1.4km/h0.0W/m²0W/m²0uvi
07.02.2023 04:00-2.8°C-2.7°C-2.8°C77.0%1036.4hPa0.0mm0.0km/hSSW3.2km/h0.0W/m²0W/m²0uvi
07.02.2023 04:05-2.8°C-2.8°C-2.9°C77.0%1036.5hPa0.0mm0.5km/hS3.2km/h0.0W/m²0W/m²0uvi
07.02.2023 04:10-2.8°C-2.8°C-2.9°C77.0%1036.5hPa0.0mm1.4km/hS3.2km/h0.0W/m²0W/m²0uvi
07.02.2023 04:15-2.8°C-2.8°C-2.9°C77.0%1036.5hPa0.0mm1.4km/hS1.4km/h0.0W/m²0W/m²0uvi
07.02.2023 04:20-2.9°C-2.8°C-2.9°C76.2%1036.5hPa0.0mm0.1km/hS1.4km/h0.0W/m²0W/m²0uvi
07.02.2023 04:25-3.0°C-2.9°C-3.1°C76.3%1036.5hPa0.0mm0.0km/hS0.0km/h0.0W/m²0W/m²0uvi
07.02.2023 04:30-3.1°C-3.1°C-3.2°C77.2%1036.5hPa0.0mm0.0km/hS3.2km/h0.0W/m²0W/m²0uvi
07.02.2023 04:35-3.3°C-3.2°C-3.3°C78.1%1036.6hPa0.0mm0.0km/hS1.4km/h0.0W/m²0W/m²0uvi
07.02.2023 04:40-3.4°C-3.3°C-3.4°C79.1%1036.6hPa0.0mm0.0km/hS0.0km/h0.0W/m²0W/m²0uvi
07.02.2023 04:45-3.4°C-3.4°C-3.4°C79.8%1036.8hPa0.0mm0.0km/hS1.4km/h0.0W/m²0W/m²0uvi
07.02.2023 04:50-3.4°C-3.3°C-3.4°C80.8%1036.9hPa0.0mm1.1km/hS3.2km/h0.0W/m²0W/m²0uvi
07.02.2023 04:55-3.4°C-3.3°C-3.4°C80.6%1037.0hPa0.0mm1.4km/hSSW3.2km/h0.0W/m²0W/m²0uvi
07.02.2023 05:00-3.5°C-3.4°C-3.6°C80.6%1037.1hPa0.0mm1.3km/hSSW1.4km/h0.0W/m²0W/m²0uvi
07.02.2023 05:05-3.6°C-3.6°C-3.7°C81.0%1037.1hPa0.0mm0.0km/hSSW1.4km/h0.0W/m²0W/m²0uvi
07.02.2023 05:10-3.7°C-3.6°C-3.7°C81.4%1037.0hPa0.0mm0.0km/hSSW3.2km/h0.0W/m²0W/m²0uvi
07.02.2023 05:15-3.7°C-3.7°C-3.8°C82.0%1037.0hPa0.0mm1.0km/hSSW3.2km/h0.0W/m²0W/m²0uvi
07.02.2023 05:20-3.8°C-3.7°C-3.8°C82.0%1037.1hPa0.0mm1.4km/hSSW4.7km/h0.0W/m²0W/m²0uvi
07.02.2023 05:25-3.8°C-3.8°C-3.8°C82.8%1037.1hPa0.0mm1.4km/hSSW3.2km/h0.0W/m²0W/m²0uvi
07.02.2023 05:30-3.8°C-3.8°C-3.8°C83.0%1037.1hPa0.0mm0.6km/hSSW1.4km/h0.0W/m²0W/m²0uvi
07.02.2023 05:35-3.8°C-3.8°C-3.9°C83.0%1037.2hPa0.0mm0.2km/hSSW1.4km/h0.0W/m²0W/m²0uvi
07.02.2023 05:40-3.8°C-3.8°C-3.8°C83.0%1037.2hPa0.0mm1.4km/hSSW3.2km/h0.0W/m²0W/m²0uvi
07.02.2023 05:45-3.8°C-3.8°C-3.8°C83.0%1037.3hPa0.0mm1.4km/hSSW4.7km/h0.0W/m²0W/m²0uvi
07.02.2023 05:50-3.9°C-3.8°C-4.1°C83.0%1037.3hPa0.0mm1.4km/hSSW4.7km/h0.0W/m²0W/m²0uvi
07.02.2023 05:55-4.1°C-4.1°C-4.1°C83.2%1037.4hPa0.0mm1.4km/hSSW1.4km/h0.0W/m²0W/m²0uvi
07.02.2023 06:00-4.1°C-4.1°C-4.2°C83.9%1037.5hPa0.0mm0.3km/hSSW1.4km/h0.0W/m²0W/m²0uvi
07.02.2023 06:05-4.1°C-4.1°C-4.1°C84.0%1037.8hPa0.0mm0.5km/hSSW4.7km/h0.0W/m²0W/m²0uvi
07.02.2023 06:10-4.1°C-4.1°C-4.1°C84.0%1037.8hPa0.0mm1.4km/hSSW3.2km/h0.0W/m²0W/m²0uvi
07.02.2023 06:15-4.1°C-4.1°C-4.1°C84.0%1038.0hPa0.0mm1.4km/hSSW4.7km/h0.0W/m²0W/m²0uvi
07.02.2023 06:20-4.2°C-4.1°C-4.2°C84.1%1038.0hPa0.0mm0.4km/hSSW3.2km/h0.0W/m²0W/m²0uvi
07.02.2023 06:25-4.1°C-4.1°C-4.2°C85.0%1038.0hPa0.0mm0.0km/hSSW1.4km/h0.0W/m²0W/m²0uvi
07.02.2023 06:30-4.1°C-4.1°C-4.1°C85.0%1038.1hPa0.0mm0.0km/hSSW1.4km/h0.0W/m²0W/m²0uvi
07.02.2023 06:35-4.1°C-4.1°C-4.1°C84.3%1038.1hPa0.0mm0.0km/hSSW1.4km/h0.0W/m²0W/m²0uvi
07.02.2023 06:40-4.1°C-4.1°C-4.1°C84.2%1038.3hPa0.0mm0.2km/hSSW3.2km/h0.0W/m²0W/m²0uvi
07.02.2023 06:45-4.1°C-4.1°C-4.2°C84.0%1038.2hPa0.0mm1.4km/hSSW1.4km/h0.0W/m²0W/m²0uvi
07.02.2023 06:50-4.2°C-4.1°C-4.3°C84.0%1038.2hPa0.0mm1.4km/hSSW3.2km/h0.0W/m²0W/m²0uvi
07.02.2023 06:55-4.2°C-4.2°C-4.3°C84.5%1038.1hPa0.0mm1.4km/hSSW3.2km/h0.0W/m²0W/m²0uvi
07.02.2023 07:00-4.1°C-4.1°C-4.2°C85.0%1038.1hPa0.0mm0.4km/hSSW3.2km/h0.0W/m²0W/m²0uvi
07.02.2023 07:05-4.1°C-4.1°C-4.1°C84.7%1038.1hPa0.0mm1.4km/hSW3.2km/h0.0W/m²0W/m²0uvi
07.02.2023 07:10-4.2°C-4.1°C-4.3°C84.0%1038.1hPa0.0mm1.7km/hSSW6.5km/h0.0W/m²0W/m²0uvi
07.02.2023 07:15-4.4°C-4.3°C-4.4°C84.1%1038.2hPa0.0mm3.2km/hSSW4.7km/h0.0W/m²0W/m²0uvi
07.02.2023 07:20-4.4°C-4.4°C-4.5°C85.0%1038.2hPa0.0mm2.3km/hSSW3.2km/h0.0W/m²0W/m²0uvi
07.02.2023 07:25-4.4°C-4.4°C-4.4°C85.2%1038.3hPa0.0mm1.4km/hSSW3.2km/h0.0W/m²0W/m²0uvi
07.02.2023 07:30-4.4°C-4.4°C-4.4°C85.3%1038.3hPa0.0mm0.6km/hSSW3.2km/h5.0W/m²5W/m²0uvi
07.02.2023 07:35-4.3°C-4.3°C-4.4°C85.9%1038.4hPa0.0mm0.5km/hWSW4.7km/h6.3W/m²7W/m²0uvi
07.02.2023 07:40-4.3°C-4.3°C-4.3°C85.3%1038.4hPa0.0mm1.4km/hWSW3.2km/h8.3W/m²9W/m²0uvi
07.02.2023 07:45-4.3°C-4.3°C-4.3°C86.0%1038.5hPa0.0mm1.4km/hWSW1.4km/h10.3W/m²11W/m²0uvi
07.02.2023 07:50-4.3°C-4.3°C-4.3°C85.8%1038.6hPa0.0mm0.6km/hWSW1.4km/h11.3W/m²12W/m²0uvi
07.02.2023 07:55-4.3°C-4.3°C-4.4°C85.5%1038.6hPa0.0mm0.0km/hWSW3.2km/h12.3W/m²14W/m²0uvi
07.02.2023 08:00-4.3°C-4.2°C-4.3°C86.0%1038.6hPa0.0mm0.8km/hW3.2km/h14.0W/m²14W/m²0uvi
07.02.2023 08:05-4.2°C-4.2°C-4.2°C86.0%1038.6hPa0.0mm1.4km/hW3.2km/h15.3W/m²16W/m²0uvi
07.02.2023 08:10-4.1°C-4.1°C-4.2°C86.0%1038.5hPa0.0mm1.4km/hW4.7km/h16.3W/m²18W/m²0uvi
07.02.2023 08:15-4.1°C-4.1°C-4.1°C85.5%1038.6hPa0.0mm1.4km/hW4.7km/h18.0W/m²18W/m²0uvi
07.02.2023 08:20-4.1°C-4.1°C-4.2°C85.0%1038.6hPa0.0mm1.7km/hSSW4.7km/h18.7W/m²19W/m²0uvi
07.02.2023 08:25-4.2°C-4.1°C-4.2°C85.0%1038.6hPa0.0mm3.2km/hSSW4.7km/h19.0W/m²19W/m²0uvi
07.02.2023 08:30-4.2°C-4.2°C-4.2°C85.5%1038.6hPa0.0mm1.5km/hSSW1.4km/h21.0W/m²21W/m²0uvi
07.02.2023 08:35-4.0°C-3.9°C-4.2°C86.0%1038.7hPa0.0mm1.4km/hS4.7km/h22.0W/m²23W/m²0uvi
07.02.2023 08:40-3.8°C-3.8°C-3.9°C85.5%1038.6hPa0.0mm1.4km/hSSW4.7km/h23.6W/m²25W/m²0uvi
07.02.2023 08:45-3.8°C-3.7°C-3.8°C84.2%1038.5hPa0.0mm1.4km/hSSW3.2km/h25.0W/m²25W/m²0uvi
07.02.2023 08:50-3.7°C-3.7°C-3.8°C84.0%1038.5hPa0.0mm1.4km/hW4.7km/h25.6W/m²26W/m²0uvi
07.02.2023 08:55-3.8°C-3.7°C-3.8°C83.8%1038.5hPa0.0mm1.4km/hW3.2km/h26.0W/m²26W/m²0uvi
07.02.2023 09:00-3.8°C-3.8°C-3.8°C84.0%1038.5hPa0.0mm1.4km/hW3.2km/h27.7W/m²28W/m²0uvi
07.02.2023 09:05-3.8°C-3.8°C-3.8°C84.0%1038.5hPa0.0mm1.7km/hW4.7km/h29.3W/m²30W/m²0uvi
07.02.2023 09:10-3.8°C-3.8°C-3.9°C84.0%1038.5hPa0.0mm3.2km/hSSW6.5km/h30.3W/m²32W/m²0uvi
07.02.2023 09:15-3.9°C-3.9°C-3.9°C84.7%1038.5hPa0.0mm2.3km/hWSW3.2km/h32.0W/m²32W/m²0uvi
07.02.2023 09:20-3.8°C-3.7°C-3.9°C85.0%1038.5hPa0.0mm1.4km/hWSW3.2km/h118.1W/m²232W/m²1uvi
07.02.2023 09:25-3.2°C-2.7°C-3.7°C85.4%1038.3hPa0.0mm1.4km/hSSW3.2km/h178.2W/m²218W/m²1uvi
07.02.2023 09:30-2.3°C-1.9°C-2.6°C83.5%1038.3hPa0.0mm1.4km/hW4.7km/h156.2W/m²257W/m²1uvi
07.02.2023 09:35-1.8°C-1.7°C-1.8°C81.2%1038.2hPa0.0mm1.4km/hW4.7km/h263.8W/m²267W/m²1uvi
07.02.2023 09:40-1.6°C-1.5°C-1.7°C80.1%1038.3hPa0.0mm1.4km/hW4.7km/h262.7W/m²264W/m²1uvi
07.02.2023 09:45-1.3°C-1.2°C-1.4°C79.8%1038.1hPa0.0mm1.4km/hWSW3.2km/h254.8W/m²258W/m²2uvi
07.02.2023 09:50-1.2°C-1.1°C-1.3°C78.5%1038.0hPa0.0mm1.4km/hSSW4.7km/h263.7W/m²271W/m²2uvi
07.02.2023 09:55-1.4°C-1.3°C-1.4°C77.6%1038.0hPa0.0mm1.7km/hSSW4.7km/h274.2W/m²278W/m²2uvi
07.02.2023 10:00-1.1°C-0.9°C-1.3°C77.9%1037.8hPa0.0mm2.3km/hSW4.7km/h283.2W/m²288W/m²2uvi
07.02.2023 10:05-0.7°C-0.6°C-0.8°C76.5%1037.8hPa0.0mm1.4km/hW4.7km/h291.5W/m²295W/m²2uvi
07.02.2023 10:10-0.4°C-0.3°C-0.6°C75.2%1037.7hPa0.0mm1.4km/hW6.5km/h301.7W/m²306W/m²2uvi
07.02.2023 10:15-0.3°C-0.2°C-0.4°C73.2%1037.7hPa0.0mm1.4km/hSSW6.5km/h312.3W/m²318W/m²2uvi
07.02.2023 10:20-0.4°C-0.2°C-0.7°C70.7%1037.7hPa0.0mm2.5km/hS7.9km/h327.8W/m²336W/m²2uvi
07.02.2023 10:25-0.7°C-0.6°C-0.8°C71.0%1037.5hPa0.0mm3.2km/hSSW6.5km/h342.8W/m²348W/m²2uvi
07.02.2023 10:30-0.2°C-0.1°C-0.5°C69.5%1037.5hPa0.0mm3.0km/hSSW3.2km/h351.0W/m²353W/m²2uvi
07.02.2023 10:350.2°C0.5°C-0.1°C69.2%1037.6hPa0.0mm1.4km/hS3.2km/h356.5W/m²360W/m²2uvi
07.02.2023 10:400.7°C0.7°C0.5°C69.5%1037.7hPa0.0mm0.6km/hW3.2km/h363.7W/m²366W/m²
07.02.2023 10:450.8°C0.8°C0.7°C67.2%1037.7hPa0.0mm1.1km/hSE6.5km/h371.7W/m²376W/m²3uvi
07.02.2023 10:500.8°C0.9°C0.8°C66.5%1037.6hPa0.0mm2.0km/hSSW6.5km/h379.3W/m²381W/m²3uvi
07.02.2023 10:550.9°C1.0°C0.9°C66.2%1037.6hPa0.0mm2.3km/hSSW4.7km/h385.8W/m²388W/m²3uvi
07.02.2023 11:000.9°C1.0°C0.9°C67.0%1037.6hPa0.0mm2.0km/hS6.5km/h391.7W/m²394W/m²3uvi
07.02.2023 11:051.2°C1.3°C1.1°C66.3%1037.3hPa0.0mm1.5km/hS6.5km/h397.4W/m²399W/m²3uvi
07.02.2023 11:101.3°C1.4°C1.2°C65.4%1037.2hPa0.0mm1.4km/hESE7.9km/h401.8W/m²404W/m²3uvi
07.02.2023 11:151.4°C1.4°C1.3°C63.3%1037.1hPa0.0mm3.1km/hW7.9km/h407.0W/m²408W/m²3uvi
07.02.2023 11:201.6°C1.6°C1.4°C63.6%1036.9hPa0.0mm3.2km/hSSW6.5km/h411.8W/m²413W/m²3uvi
07.02.2023 11:251.7°C1.8°C1.6°C62.8%1036.7hPa0.0mm3.2km/hSE6.5km/h415.3W/m²417W/m²3uvi
07.02.2023 11:301.8°C1.8°C1.7°C62.6%1036.6hPa0.0mm3.2km/hS6.5km/h419.2W/m²420W/m²3uvi
07.02.2023 11:352.2°C2.3°C1.9°C61.8%1036.5hPa0.0mm2.9km/hSSW6.5km/h422.0W/m²424W/m²3uvi
07.02.2023 11:402.3°C2.4°C2.3°C60.5%1036.5hPa0.0mm1.9km/hSSE3.2km/h424.3W/m²425W/m²3uvi
07.02.2023 11:452.6°C2.7°C2.4°C60.1%1036.5hPa0.0mm1.4km/hSSE6.5km/h426.7W/m²427W/m²3uvi
07.02.2023 11:502.6°C2.7°C2.5°C59.0%1036.4hPa0.0mm2.0km/hW9.7km/h429.7W/m²431W/m²3uvi
07.02.2023 11:552.8°C3.0°C2.7°C58.6%1036.2hPa0.0mm3.2km/hSSW3.2km/h431.8W/m²432W/m²3uvi
07.02.2023 12:003.1°C3.2°C2.9°C57.1%1036.1hPa0.0mm1.8km/hSSE4.7km/h433.7W/m²436W/m²3uvi
07.02.2023 12:052.9°C2.9°C2.8°C57.2%1036.0hPa0.0mm2.4km/hESE4.7km/h435.0W/m²436W/m²3uvi
07.02.2023 12:103.2°C3.3°C3.0°C56.5%1036.0hPa0.0mm2.2km/hSW4.7km/h435.6W/m²436W/m²3uvi
07.02.2023 12:153.3°C3.4°C3.2°C55.5%1035.8hPa0.0mm1.4km/hSW6.5km/h434.7W/m²436W/m²3uvi
07.02.2023 12:203.3°C3.3°C3.2°C55.0%1035.8hPa0.0mm2.8km/hSSW4.7km/h437.7W/m²438W/m²3uvi
07.02.2023 12:253.4°C3.4°C3.3°C54.8%1035.6hPa0.0mm2.3km/hSE4.7km/h437.7W/m²438W/m²2uvi
07.02.2023 12:303.6°C3.9°C3.4°C55.3%1035.5hPa0.0mm1.4km/hSE4.7km/h437.3W/m²438W/m²2uvi
07.02.2023 12:354.2°C4.4°C4.0°C53.8%1035.4hPa0.0mm1.4km/hESE4.7km/h435.2W/m²436W/m²2uvi
07.02.2023 12:404.2°C4.2°C4.1°C53.1%1035.5hPa0.0mm1.4km/hESE11.2km/h432.3W/m²434W/m²2uvi
07.02.2023 12:454.0°C4.1°C3.9°C53.1%1035.4hPa0.0mm3.2km/hSE11.2km/h430.3W/m²432W/m²2uvi
07.02.2023 12:503.9°C4.0°C3.8°C53.0%1035.4hPa0.0mm3.8km/hESE6.5km/h424.5W/m²425W/m²2uvi
07.02.2023 12:554.1°C4.3°C3.9°C51.3%1035.4hPa0.0mm3.2km/hESE6.5km/h423.7W/m²424W/m²2uvi
07.02.2023 13:004.3°C4.4°C4.3°C50.4%1035.3hPa0.0mm3.2km/hNNE6.5km/h424.2W/m²425W/m²2uvi
07.02.2023 13:054.3°C4.3°C4.3°C50.0%1035.3hPa0.0mm3.2km/hESE4.7km/h423.0W/m²424W/m²2uvi
07.02.2023 13:104.2°C4.4°C4.1°C50.0%1035.2hPa0.0mm3.2km/hE6.5km/h422.3W/m²424W/m²2uvi
07.02.2023 13:154.6°C4.7°C4.4°C49.7%1035.2hPa0.0mm3.2km/hNNE4.7km/h417.5W/m²420W/m²2uvi
07.02.2023 13:204.8°C4.9°C4.7°C48.6%1035.2hPa0.0mm3.2km/hW3.2km/h414.2W/m²415W/m²2uvi
07.02.2023 13:255.0°C5.1°C4.8°C48.4%1035.1hPa0.0mm2.3km/hW4.7km/h409.7W/m²411W/m²2uvi
07.02.2023 13:305.1°C5.2°C4.9°C47.8%1035.1hPa0.0mm2.1km/hSSW4.7km/h405.3W/m²408W/m²2uvi
07.02.2023 13:354.9°C5.0°C4.9°C47.7%1035.0hPa0.0mm3.1km/hSSW6.5km/h401.0W/m²403W/m²2uvi
07.02.2023 13:404.9°C5.0°C4.7°C46.5%1035.0hPa0.0mm3.2km/hSSW7.9km/h396.0W/m²397W/m²2uvi
07.02.2023 13:454.9°C5.1°C4.7°C46.4%1034.9hPa0.0mm2.2km/hSSW4.7km/h388.2W/m²390W/m²1uvi
07.02.2023 13:505.2°C5.3°C5.1°C46.3%1034.8hPa0.0mm1.4km/hSE4.7km/h383.4W/m²385W/m²1uvi
07.02.2023 13:555.3°C5.3°C5.3°C46.3%1034.7hPa0.0mm1.4km/hESE4.7km/h377.5W/m²381W/m²1uvi
07.02.2023 14:005.4°C5.7°C5.1°C46.9%1034.7hPa0.0mm1.4km/hSE3.2km/h370.8W/m²374W/m²1uvi
07.02.2023 14:055.9°C6.0°C5.7°C48.5%1034.6hPa0.0mm1.4km/hSE6.5km/h362.7W/m²366W/m²1uvi
07.02.2023 14:105.7°C5.9°C5.6°C46.6%1034.5hPa0.0mm1.7km/hN7.9km/h356.3W/m²360W/m²1uvi
07.02.2023 14:155.5°C5.6°C5.4°C47.2%1034.4hPa0.0mm3.2km/hN6.5km/h349.5W/m²353W/m²1uvi
07.02.2023 14:205.4°C5.5°C5.3°C45.9%1034.3hPa0.0mm3.2km/hNNE7.9km/h341.3W/m²345W/m²1uvi
07.02.2023 14:255.6°C5.8°C5.4°C47.6%1034.3hPa0.0mm3.2km/hNNE4.7km/h331.8W/m²336W/m²1uvi
07.02.2023 14:305.7°C5.8°C5.6°C45.9%1034.3hPa0.0mm1.6km/hN4.7km/h323.4W/m²327W/m²1uvi
07.02.2023 14:355.7°C5.7°C5.7°C45.2%1034.2hPa0.0mm1.4km/hNNE6.5km/h316.3W/m²320W/m²1uvi
07.02.2023 14:405.7°C5.8°C5.7°C44.5%1034.2hPa0.0mm1.4km/hNNE6.5km/h309.2W/m²313W/m²1uvi
07.02.2023 14:455.6°C5.7°C5.5°C44.0%1034.2hPa0.0mm1.4km/hN4.7km/h299.5W/m²304W/m²1uvi
07.02.2023 14:505.5°C5.6°C5.4°C43.7%1034.2hPa0.0mm3.1km/hNE4.7km/h290.2W/m²294W/m²1uvi
07.02.2023 14:555.5°C5.6°C5.4°C42.9%1034.2hPa0.0mm1.6km/hN4.7km/h280.7W/m²287W/m²1uvi
07.02.2023 15:005.4°C5.4°C5.4°C41.8%1034.1hPa0.0mm1.4km/hNNE3.2km/h270.6W/m²274W/m²1uvi
07.02.2023 15:055.5°C5.6°C5.4°C42.0%1034.2hPa0.0mm1.4km/hWNW3.2km/h262.3W/m²265W/m²0uvi
07.02.2023 15:105.6°C5.7°C5.5°C41.6%1033.9hPa0.0mm1.4km/hESE4.7km/h252.3W/m²257W/m²0uvi
07.02.2023 15:155.7°C5.8°C5.6°C40.2%1033.9hPa0.0mm1.4km/hNNE4.7km/h240.3W/m²246W/m²0uvi
07.02.2023 15:205.5°C5.6°C5.4°C41.1%1033.9hPa0.0mm1.4km/hNNE6.5km/h229.8W/m²234W/m²0uvi
07.02.2023 15:255.3°C5.4°C5.2°C42.1%1033.8hPa0.0mm1.4km/hSE4.7km/h220.5W/m²225W/m²0uvi
07.02.2023 15:305.2°C5.2°C5.1°C41.9%1033.8hPa0.0mm1.4km/hESE4.7km/h151.8W/m²214W/m²0uvi
07.02.2023 15:355.0°C5.1°C4.8°C42.5%1033.7hPa0.0mm1.4km/hNW3.2km/h33.0W/m²37W/m²0uvi
07.02.2023 15:404.7°C4.9°C4.6°C43.2%1033.7hPa0.0mm1.4km/hN3.2km/h30.0W/m²30W/m²0uvi
07.02.2023 15:454.6°C4.7°C4.5°C44.1%1033.6hPa0.0mm0.1km/hN3.2km/h30.0W/m²30W/m²0uvi
07.02.2023 15:504.4°C4.5°C4.3°C44.9%1033.5hPa0.0mm0.0km/hE3.2km/h30.0W/m²30W/m²0uvi
07.02.2023 15:554.2°C4.3°C4.2°C44.9%1033.5hPa0.0mm1.4km/hESE3.2km/h28.7W/m²30W/m²0uvi
07.02.2023 16:004.1°C4.2°C3.9°C47.6%1033.5hPa0.0mm1.4km/hS4.7km/h28.0W/m²28W/m²0uvi
07.02.2023 16:053.8°C3.9°C3.6°C49.4%1033.5hPa0.0mm1.4km/hS4.7km/h27.7W/m²28W/m²0uvi
07.02.2023 16:103.5°C3.6°C3.4°C51.1%1033.4hPa0.0mm1.4km/hS3.2km/h26.0W/m²26W/m²0uvi
07.02.2023 16:153.3°C3.4°C3.1°C52.8%1033.5hPa0.0mm1.4km/hSE4.7km/h25.6W/m²26W/m²0uvi
07.02.2023 16:203.0°C3.1°C2.8°C55.2%1033.6hPa0.0mm1.4km/hSE6.5km/h25.0W/m²25W/m²0uvi
07.02.2023 16:252.8°C2.9°C2.7°C56.0%1033.6hPa0.0mm1.4km/hSE3.2km/h23.7W/m²25W/m²0uvi
07.02.2023 16:302.7°C2.7°C2.7°C56.2%1033.5hPa0.0mm1.4km/hSSE3.2km/h23.0W/m²23W/m²0uvi
07.02.2023 16:352.6°C2.7°C2.6°C56.5%1033.5hPa0.0mm1.4km/hSE3.2km/h21.0W/m²21W/m²0uvi
07.02.2023 16:402.5°C2.6°C2.4°C56.8%1033.5hPa0.0mm1.4km/hSSE3.2km/h20.0W/m²21W/m²0uvi
07.02.2023 16:452.3°C2.4°C2.2°C57.3%1033.5hPa0.0mm1.4km/hESE7.9km/h18.8W/m²19W/m²0uvi
07.02.2023 16:502.2°C2.3°C2.2°C56.7%1033.5hPa0.0mm2.7km/hSSE6.5km/h18.0W/m²18W/m²0uvi
07.02.2023 16:552.2°C2.2°C2.2°C55.8%1033.5hPa0.0mm3.2km/hSSE6.5km/h16.0W/m²16W/m²0uvi
07.02.2023 17:002.3°C2.4°C2.3°C54.5%1033.5hPa0.0mm1.5km/hS3.2km/h14.0W/m²14W/m²0uvi
07.02.2023 17:052.4°C2.4°C2.3°C54.4%1033.6hPa0.0mm1.4km/hS3.2km/h12.1W/m²14W/m²0uvi
07.02.2023 17:102.4°C2.4°C2.3°C54.0%1033.7hPa0.0mm1.4km/hS4.7km/h10.3W/m²11W/m²0uvi
07.02.2023 17:152.3°C2.4°C2.3°C54.0%1033.7hPa0.0mm1.4km/hS4.7km/h8.2W/m²9W/m²0uvi
07.02.2023 17:202.2°C2.3°C2.2°C54.9%1033.8hPa0.0mm1.4km/hS3.2km/h6.3W/m²7W/m²0uvi
07.02.2023 17:252.1°C2.2°C2.1°C55.5%1033.8hPa0.0mm1.2km/hS3.2km/h2.5W/m²5W/m²0uvi
07.02.2023 17:302.0°C2.1°C1.9°C56.1%1033.9hPa0.0mm1.3km/hS3.2km/h0.0W/m²0W/m²0uvi
07.02.2023 17:351.8°C1.9°C1.8°C57.0%1034.1hPa0.0mm1.2km/hS3.2km/h0.0W/m²0W/m²0uvi
07.02.2023 17:401.6°C1.8°C1.5°C57.8%1034.2hPa0.0mm0.2km/hSSE3.2km/h0.0W/m²0W/m²0uvi
07.02.2023 17:451.4°C1.6°C1.3°C58.9%1034.3hPa0.0mm0.1km/hSSE3.2km/h0.0W/m²0W/m²0uvi
07.02.2023 17:501.1°C1.3°C1.0°C59.7%1034.4hPa0.0mm0.3km/hSSE3.2km/h0.0W/m²0W/m²0uvi
07.02.2023 17:550.9°C1.1°C0.8°C60.7%1034.4hPa0.0mm0.5km/hSSE3.2km/h0.0W/m²0W/m²0uvi
07.02.2023 18:000.7°C0.8°C0.6°C61.9%1034.5hPa0.0mm0.1km/hSSE3.2km/h0.0W/m²0W/m²0uvi
07.02.2023 18:050.5°C0.6°C0.4°C62.9%1034.5hPa0.0mm1.3km/hSSE3.2km/h0.0W/m²0W/m²0uvi
07.02.2023 18:100.3°C0.4°C0.3°C63.5%1034.7hPa0.0mm1.4km/hSE3.2km/h0.0W/m²0W/m²0uvi
07.02.2023 18:150.2°C0.3°C0.2°C64.0%1034.8hPa0.0mm1.4km/hS3.2km/h0.0W/m²0W/m²0uvi
07.02.2023 18:200.2°C0.2°C0.2°C64.0%1035.0hPa0.0mm1.4km/hSSW4.7km/h0.0W/m²0W/m²0uvi
07.02.2023 18:250.2°C0.2°C0.1°C64.0%1035.1hPa0.0mm1.4km/hS6.5km/h0.0W/m²0W/m²0uvi
07.02.2023 18:300.2°C0.2°C0.2°C64.0%1035.1hPa0.0mm2.8km/hSSE3.2km/h0.0W/m²0W/m²0uvi
07.02.2023 18:350.2°C0.2°C0.1°C64.0%1035.2hPa0.0mm1.4km/hSSE4.7km/h0.0W/m²0W/m²0uvi
07.02.2023 18:400.1°C0.1°C0.0°C64.0%1035.2hPa0.0mm1.4km/hS4.7km/h0.0W/m²0W/m²0uvi
07.02.2023 18:450.0°C0.1°C0.0°C64.0%1035.3hPa0.0mm2.1km/hS7.9km/h0.0W/m²0W/m²0uvi
07.02.2023 18:50-0.0°C0.0°C-0.1°C64.0%1035.2hPa0.0mm1.9km/hSSW4.7km/h0.0W/m²0W/m²0uvi
07.02.2023 18:55-0.1°C0.0°C-0.1°C64.2%1035.2hPa0.0mm1.4km/hSSE4.7km/h0.0W/m²0W/m²0uvi
07.02.2023 19:00-0.2°C-0.1°C-0.2°C65.0%1035.2hPa0.0mm1.4km/hS4.7km/h0.0W/m²0W/m²0uvi
07.02.2023 19:05-0.3°C-0.2°C-0.3°C65.0%1035.3hPa0.0mm1.4km/hSSE3.2km/h0.0W/m²0W/m²0uvi
07.02.2023 19:10-0.3°C-0.2°C-0.3°C65.6%1035.4hPa0.0mm1.4km/hSSE3.2km/h0.0W/m²0W/m²0uvi
07.02.2023 19:15-0.3°C-0.3°C-0.3°C65.0%1035.4hPa0.0mm1.4km/hSSW6.5km/h0.0W/m²0W/m²0uvi
07.02.2023 19:20-0.3°C-0.3°C-0.3°C66.0%1035.3hPa0.0mm1.1km/hSSW1.4km/h0.0W/m²0W/m²0uvi
07.02.2023 19:25-0.4°C-0.3°C-0.4°C66.0%1035.2hPa0.0mm1.1km/hSSW4.7km/h0.0W/m²0W/m²0uvi
07.02.2023 19:30-0.3°C-0.2°C-0.4°C66.0%1035.2hPa0.0mm2.0km/hS6.5km/h0.0W/m²0W/m²0uvi
07.02.2023 19:35-0.2°C-0.1°C-0.3°C65.0%1035.2hPa0.0mm3.2km/hS6.5km/h0.0W/m²0W/m²0uvi
07.02.2023 19:40-0.1°C-0.1°C-0.1°C65.0%1035.3hPa0.0mm1.9km/hS6.5km/h0.0W/m²0W/m²0uvi
07.02.2023 19:45-0.1°C-0.1°C-0.1°C64.5%1035.3hPa0.0mm2.1km/hS7.9km/h0.0W/m²0W/m²0uvi
07.02.2023 19:50-0.1°C0.0°C-0.1°C64.0%1035.4hPa0.0mm3.0km/hSSE3.2km/h0.0W/m²0W/m²0uvi
07.02.2023 19:55-0.1°C0.0°C-0.1°C64.0%1035.4hPa0.0mm1.4km/hS4.7km/h0.0W/m²0W/m²0uvi
07.02.2023 20:00-0.1°C0.0°C-0.1°C63.9%1035.5hPa0.0mm1.4km/hS6.5km/h0.0W/m²0W/m²0uvi
07.02.2023 20:05-0.0°C0.0°C-0.1°C63.5%1035.6hPa0.0mm1.4km/hESE3.2km/h0.0W/m²0W/m²0uvi
07.02.2023 20:10-0.1°C0.0°C-0.1°C63.9%1035.6hPa0.0mm1.4km/hESE3.2km/h0.0W/m²0W/m²0uvi
07.02.2023 20:15-0.1°C-0.1°C-0.1°C63.7%1035.7hPa0.0mm0.7km/hSE3.2km/h0.0W/m²0W/m²0uvi
07.02.2023 20:20-0.1°C-0.1°C-0.2°C64.0%1035.7hPa0.0mm0.0km/hSE3.2km/h0.0W/m²0W/m²0uvi
07.02.2023 20:25-0.2°C-0.2°C-0.3°C64.3%1035.7hPa0.0mm0.0km/hSE1.4km/h0.0W/m²0W/m²0uvi
07.02.2023 20:30-0.4°C-0.3°C-0.4°C65.0%1035.8hPa0.0mm0.0km/hSE3.2km/h0.0W/m²0W/m²0uvi
07.02.2023 20:35-0.5°C-0.4°C-0.6°C65.6%1035.8hPa0.0mm0.0km/hS4.7km/h0.0W/m²0W/m²0uvi
07.02.2023 20:40-0.6°C-0.6°C-0.7°C66.0%1035.9hPa0.0mm0.9km/hSE6.5km/h0.0W/m²0W/m²0uvi
07.02.2023 20:45-0.7°C-0.7°C-0.8°C66.7%1035.9hPa0.0mm1.4km/hSSE4.7km/h0.0W/m²0W/m²0uvi
07.02.2023 20:50-0.8°C-0.7°C-0.8°C67.0%1036.0hPa0.0mm1.4km/hS3.2km/h0.0W/m²0W/m²0uvi
07.02.2023 20:55-0.8°C-0.8°C-0.9°C67.0%1036.0hPa0.0mm0.1km/hS3.2km/h0.0W/m²0W/m²0uvi
07.02.2023 21:00-0.9°C-0.9°C-1.0°C67.0%1036.0hPa0.0mm0.0km/hS3.2km/h0.0W/m²0W/m²0uvi
07.02.2023 21:05-1.0°C-0.9°C-1.1°C67.0%1036.0hPa0.0mm0.2km/hSE3.2km/h0.0W/m²0W/m²0uvi
07.02.2023 21:10-1.1°C-1.0°C-1.1°C67.2%1036.0hPa0.0mm1.4km/hSSE4.7km/h0.0W/m²0W/m²0uvi
07.02.2023 21:15-1.0°C-1.0°C-1.1°C67.0%1036.1hPa0.0mm1.4km/hSSW7.9km/h0.0W/m²0W/m²0uvi
07.02.2023 21:20-1.0°C-1.0°C-1.1°C67.0%1036.1hPa0.0mm1.4km/hESE4.7km/h0.0W/m²0W/m²0uvi
07.02.2023 21:25-1.1°C-1.0°C-1.1°C67.0%1036.2hPa0.0mm1.4km/hSE3.2km/h0.0W/m²0W/m²0uvi
07.02.2023 21:30-1.1°C-1.1°C-1.1°C67.2%1036.3hPa0.0mm1.4km/hSSE6.5km/h0.0W/m²0W/m²0uvi
07.02.2023 21:35-1.1°C-1.0°C-1.1°C67.0%1036.2hPa0.0mm1.4km/hSE3.2km/h0.0W/m²0W/m²0uvi
07.02.2023 21:40-1.2°C-1.1°C-1.2°C68.0%1036.2hPa0.0mm1.4km/hSE3.2km/h0.0W/m²0W/m²0uvi
07.02.2023 21:45-1.3°C-1.2°C-1.3°C68.0%1036.3hPa0.0mm1.4km/hSSW4.7km/h0.0W/m²0W/m²0uvi
07.02.2023 21:50-1.4°C-1.3°C-1.4°C69.0%1036.4hPa0.0mm1.4km/hSSW3.2km/h0.0W/m²0W/m²0uvi
07.02.2023 21:55-1.4°C-1.4°C-1.5°C69.0%1036.4hPa0.0mm1.0km/hS1.4km/h0.0W/m²0W/m²0uvi
07.02.2023 22:00-1.6°C-1.5°C-1.6°C69.0%1036.4hPa0.0mm0.5km/hSSW3.2km/h0.0W/m²0W/m²0uvi
07.02.2023 22:05-1.6°C-1.6°C-1.6°C69.3%1036.4hPa0.0mm0.1km/hSSW1.4km/h0.0W/m²0W/m²0uvi
07.02.2023 22:10-1.6°C-1.6°C-1.6°C70.0%1036.5hPa0.0mm0.2km/hSSW6.5km/h0.0W/m²0W/m²0uvi
07.02.2023 22:15-1.7°C-1.6°C-1.7°C70.0%1036.5hPa0.0mm1.4km/hSSW3.2km/h0.0W/m²0W/m²0uvi
07.02.2023 22:20-1.7°C-1.6°C-1.7°C69.1%1036.5hPa0.0mm1.4km/hSSW4.7km/h0.0W/m²0W/m²0uvi
07.02.2023 22:25-1.7°C-1.6°C-1.7°C69.0%1036.6hPa0.0mm1.4km/hNE3.2km/h0.0W/m²0W/m²0uvi
07.02.2023 22:30-1.7°C-1.7°C-1.7°C69.0%1036.7hPa0.0mm1.4km/hE4.7km/h0.0W/m²0W/m²0uvi
07.02.2023 22:35-1.7°C-1.7°C-1.7°C69.0%1036.6hPa0.0mm1.4km/hSSE6.5km/h0.0W/m²0W/m²0uvi
07.02.2023 22:40-1.7°C-1.7°C-1.8°C69.3%1036.7hPa0.0mm1.4km/hSE3.2km/h0.0W/m²0W/m²0uvi
07.02.2023 22:45-1.7°C-1.7°C-1.8°C69.6%1036.7hPa0.0mm1.4km/hSSW4.7km/h0.0W/m²0W/m²0uvi
07.02.2023 22:50-1.7°C-1.7°C-1.8°C69.0%1036.8hPa0.0mm1.4km/hSSW1.4km/h0.0W/m²0W/m²
07.02.2023 22:55-1.7°C-1.7°C-1.8°C69.0%1036.8hPa0.0mm1.4km/hS4.7km/h0.0W/m²0W/m²0uvi
07.02.2023 23:00-1.6°C-1.6°C-1.7°C68.9%1036.9hPa0.0mm1.4km/hS4.7km/h0.0W/m²0W/m²0uvi
07.02.2023 23:05-1.6°C-1.5°C-1.6°C68.0%1036.9hPa0.0mm1.4km/hS1.4km/h0.0W/m²0W/m²0uvi
07.02.2023 23:10-1.6°C-1.5°C-1.6°C68.0%1036.8hPa0.0mm0.9km/hS1.4km/h0.0W/m²0W/m²
07.02.2023 23:15-1.6°C-1.6°C-1.7°C68.0%1036.9hPa0.0mm0.0km/hS1.4km/h0.0W/m²0W/m²0uvi
07.02.2023 23:20-1.8°C-1.7°C-1.8°C68.7%1036.9hPa0.0mm0.0km/hS1.4km/h0.0W/m²0W/m²0uvi
07.02.2023 23:25-1.9°C-1.8°C-1.9°C69.0%1036.9hPa0.0mm0.0km/hS1.4km/h0.0W/m²0W/m²0uvi
07.02.2023 23:30-1.9°C-1.9°C-2.0°C69.0%1036.9hPa0.0mm0.0km/hS3.2km/h0.0W/m²0W/m²
07.02.2023 23:35-2.0°C-1.9°C-2.0°C69.0%1036.9hPa0.0mm0.0km/hSSE4.7km/h0.0W/m²0W/m²0uvi
07.02.2023 23:40-2.0°C-2.0°C-2.0°C69.0%1036.9hPa0.0mm1.4km/hS6.5km/h0.0W/m²0W/m²0uvi
07.02.2023 23:45-1.9°C-1.9°C-2.0°C69.0%1037.0hPa0.0mm1.4km/hSE3.2km/h0.0W/m²0W/m²0uvi
07.02.2023 23:50-2.0°C-1.9°C-2.0°C69.0%1037.0hPa0.0mm1.4km/hSE3.2km/h0.0W/m²0W/m²0uvi
07.02.2023 23:55-2.1°C-2.0°C-2.1°C69.0%1037.0hPa0.0mm1.4km/hSE1.4km/h0.0W/m²0W/m²0uvi
08.02.2023 00:00-2.1°C-2.1°C-2.2°C69.0%1037.0hPa0.0mm0.9km/hSE4.7km/h0.0W/m²0W/m²0uvi
08.02.2023 00:05-2.2°C-2.1°C-2.2°C69.0%1037.1hPa0.0mm0.6km/hS3.2km/h0.0W/m²0W/m²0uvi
08.02.2023 00:10-2.2°C-2.2°C-2.3°C69.0%1037.1hPa0.0mm0.0km/hS3.2km/h0.0W/m²0W/m²0uvi
08.02.2023 00:15-2.3°C-2.3°C-2.3°C69.4%1037.0hPa0.0mm0.2km/hS3.2km/h0.0W/m²0W/m²0uvi
08.02.2023 00:20-2.4°C-2.3°C-2.5°C70.3%1037.2hPa0.0mm0.4km/hSSW1.4km/h0.0W/m²0W/m²0uvi
08.02.2023 00:25-2.5°C-2.4°C-2.6°C71.0%1037.2hPa0.0mm0.0km/hSSW3.2km/h0.0W/m²0W/m²0uvi
08.02.2023 00:30-2.6°C-2.6°C-2.7°C71.8%1037.2hPa0.0mm0.0km/hSSW1.4km/h0.0W/m²0W/m²0uvi
08.02.2023 00:35-2.7°C-2.7°C-2.7°C71.7%1037.3hPa0.0mm0.0km/hSSW3.2km/h0.0W/m²0W/m²0uvi
08.02.2023 00:40-2.7°C-2.7°C-2.7°C71.3%1037.2hPa0.0mm0.3km/hSSW3.2km/h0.0W/m²0W/m²0uvi
08.02.2023 00:45-2.8°C-2.7°C-2.8°C72.0%1037.2hPa0.0mm1.4km/hSSW3.2km/h0.0W/m²0W/m²0uvi
08.02.2023 00:50-2.9°C-2.8°C-2.9°C72.2%1037.2hPa0.0mm1.2km/hSSW1.4km/h0.0W/m²0W/m²0uvi
08.02.2023 00:55-3.0°C-2.9°C-3.1°C73.1%1037.2hPa0.0mm0.0km/hSSW3.2km/h0.0W/m²0W/m²0uvi
08.02.2023 01:00-3.1°C-3.1°C-3.1°C74.0%1037.2hPa0.0mm0.0km/hSSW0.0km/h0.0W/m²0W/m²0uvi
08.02.2023 01:05-3.1°C-3.1°C-3.1°C74.0%1037.2hPa0.0mm0.0km/hSSW3.2km/h0.0W/m²0W/m²0uvi
08.02.2023 01:10-3.1°C-3.1°C-3.1°C74.3%1037.2hPa0.0mm1.1km/hWSW4.7km/h0.0W/m²0W/m²0uvi
08.02.2023 01:15-3.1°C-3.1°C-3.2°C75.0%1037.1hPa0.0mm1.4km/hWSW4.7km/h0.0W/m²0W/m²0uvi
08.02.2023 01:20-3.3°C-3.2°C-3.3°C75.5%1037.2hPa0.0mm1.4km/hWSW4.7km/h0.0W/m²0W/m²0uvi
08.02.2023 01:25-3.3°C-3.3°C-3.4°C76.0%1037.1hPa0.0mm1.4km/hWSW1.4km/h0.0W/m²0W/m²0uvi
08.02.2023 01:30-3.5°C-3.4°C-3.5°C76.2%1037.1hPa0.0mm1.4km/hWSW1.4km/h0.0W/m²0W/m²0uvi
08.02.2023 01:35-3.5°C-3.5°C-3.6°C77.0%1037.1hPa0.0mm1.4km/hWSW3.2km/h0.0W/m²0W/m²0uvi
08.02.2023 01:40-3.5°C-3.5°C-3.6°C77.0%1037.1hPa0.0mm1.4km/hWSW1.4km/h0.0W/m²0W/m²0uvi
08.02.2023 01:45-3.4°C-3.4°C-3.5°C76.5%1037.1hPa0.0mm1.2km/hWSW3.2km/h0.0W/m²0W/m²0uvi
08.02.2023 01:50-3.3°C-3.3°C-3.4°C75.4%1037.1hPa0.0mm1.0km/hWSW1.4km/h0.0W/m²0W/m²0uvi
08.02.2023 01:55-3.3°C-3.3°C-3.3°C73.5%1037.2hPa0.0mm0.1km/hWSW1.4km/h0.0W/m²0W/m²0uvi
08.02.2023 02:00-3.3°C-3.3°C-3.3°C72.7%1037.2hPa0.0mm0.0km/hWSW1.4km/h0.0W/m²0W/m²0uvi
08.02.2023 02:05-3.3°C-3.3°C-3.3°C71.6%1037.2hPa0.0mm0.0km/hS3.2km/h0.0W/m²0W/m²0uvi
08.02.2023 02:10-3.3°C-3.3°C-3.3°C71.0%1037.1hPa0.0mm0.0km/hS6.5km/h0.0W/m²0W/m²0uvi
08.02.2023 02:15-3.2°C-3.2°C-3.2°C70.3%1037.3hPa0.0mm0.0km/hS3.2km/h0.0W/m²0W/m²0uvi
08.02.2023 02:20-3.2°C-3.2°C-3.3°C70.0%1037.3hPa0.0mm0.0km/hS1.4km/h0.0W/m²0W/m²0uvi
08.02.2023 02:25-3.3°C-3.2°C-3.4°C71.0%1037.2hPa0.0mm0.0km/hS3.2km/h0.0W/m²0W/m²0uvi
08.02.2023 02:30-3.4°C-3.3°C-3.5°C72.6%1037.2hPa0.0mm1.0km/hSSW3.2km/h0.0W/m²0W/m²0uvi
08.02.2023 02:35-3.6°C-3.4°C-3.7°C73.6%1037.3hPa0.0mm1.4km/hSSW3.2km/h0.0W/m²0W/m²0uvi
08.02.2023 02:40-3.7°C-3.7°C-3.7°C75.0%1037.2hPa0.0mm1.4km/hSSW1.4km/h0.0W/m²0W/m²0uvi
08.02.2023 02:45-3.8°C-3.7°C-3.8°C75.3%1037.3hPa0.0mm0.5km/hSSW3.2km/h0.0W/m²0W/m²0uvi
08.02.2023 02:50-3.8°C-3.8°C-3.9°C76.8%1037.3hPa0.0mm1.4km/hWSW4.7km/h0.0W/m²0W/m²0uvi
08.02.2023 02:55-4.0°C-3.9°C-4.1°C77.6%1037.3hPa0.0mm1.4km/hWSW3.2km/h0.0W/m²0W/m²0uvi
08.02.2023 03:00